Terminal Aerodrome Forecast
Issued by NWS Mobile, AL

Home | Current Version | Previous Version | Text Only | Print | Product List | Glossary On
Versions: 1 2 3 4 5 6 7 8 9 10 11 12 13 14 15 16
000
FTUS44 KMOB 251729
TAFMOB
TAF
KMOB 251729Z 2518/2618 24004KT P6SM VCTS SCT030CB SCT250
     FM260300 00000KT P6SM FEW050 FEW250
     FM261200 36002KT 4SM BR FEW250
     FM261500 04004KT P6SM FEW250=

USA.gov is the U.S. government's official web portal to all federal, state and local government web resources and services.